createdAt,value
2022-10-18T00:01:10.739Z,100845.28
2022-10-18T00:03:38.761Z,100842.72
2022-10-18T00:06:08.956Z,100841.88
2022-10-18T00:08:36.973Z,100846.25
2022-10-18T00:11:06.254Z,100848.03
2022-10-18T00:13:33.904Z,100842.91
2022-10-18T00:16:04.567Z,100837.84
2022-10-18T00:18:32.340Z,100843.13
2022-10-18T00:21:01.864Z,100850.94
2022-10-18T00:23:30.806Z,100850.13
2022-10-18T00:26:03.481Z,100854.47
2022-10-18T00:28:32.472Z,100851.03
2022-10-18T00:31:11.319Z,100847.56
2022-10-18T00:33:38.979Z,100850.25
2022-10-18T00:36:07.148Z,100849.31
2022-10-18T00:38:34.716Z,100845.00
2022-10-18T00:41:02.264Z,100845.81
2022-10-18T00:43:29.792Z,100853.59
2022-10-18T00:45:58.677Z,100844.97
2022-10-18T00:48:26.248Z,100864.06
2022-10-18T00:50:54.341Z,100853.69
2022-10-18T00:53:23.755Z,100850.34
2022-10-18T00:55:51.829Z,100853.81
2022-10-18T00:58:20.761Z,100846.91
2022-10-18T01:00:48.408Z,100850.34
2022-10-18T01:03:17.276Z,100850.34
2022-10-18T01:05:47.537Z,100841.72
2022-10-18T01:08:30.193Z,100853.00
2022-10-18T01:11:10.776Z,100848.66
2022-10-18T01:13:52.181Z,100847.75
2022-10-18T01:16:27.402Z,100845.09
2022-10-18T01:19:05.917Z,100843.34
2022-10-18T01:21:44.230Z,100849.47
2022-10-18T01:27:43.988Z,100838.34
2022-10-18T01:30:41.804Z,100838.38
2022-10-18T01:33:18.332Z,100840.16
2022-10-18T01:35:50.104Z,100831.53
2022-10-18T01:38:20.283Z,100841.16
2022-10-18T01:40:51.297Z,100828.16
2022-10-18T01:43:21.573Z,100834.22
2022-10-18T01:45:51.577Z,100832.47
2022-10-18T01:48:20.077Z,100823.00
2022-10-18T01:50:47.604Z,100833.38
2022-10-18T01:53:32.364Z,100826.44
2022-10-18T01:56:17.348Z,100822.16
2022-10-18T01:59:06.287Z,100826.47
2022-10-18T02:01:45.322Z,100830.00
2022-10-18T02:04:24.136Z,100835.13
2022-10-18T02:06:58.907Z,100825.63
2022-10-18T02:09:39.226Z,100827.34
2022-10-18T02:12:11.904Z,100815.28
2022-10-18T02:14:40.844Z,100821.34
2022-10-18T02:17:13.260Z,100810.97
2022-10-18T02:19:44.194Z,100803.09
2022-10-18T02:22:13.644Z,100809.16
2022-10-18T02:24:45.765Z,100803.97
2022-10-18T02:27:13.776Z,100802.22
2022-10-18T02:29:42.545Z,100803.88
2022-10-18T02:32:19.307Z,100800.41
2022-10-18T02:34:50.213Z,100796.84
2022-10-18T02:37:18.571Z,100798.53
2022-10-18T02:39:48.669Z,100795.88
2022-10-18T02:42:16.694Z,100792.31
2022-10-18T02:44:44.227Z,100792.25
2022-10-18T02:47:13.552Z,100791.38
2022-10-18T02:49:41.186Z,100793.06
2022-10-18T02:52:08.739Z,100783.50
2022-10-18T02:54:36.252Z,100792.00
2022-10-18T02:57:03.748Z,100784.16
2022-10-18T02:59:31.317Z,100778.94
2022-10-18T03:01:58.837Z,100778.88
2022-10-18T03:06:56.323Z,100784.81
2022-10-18T03:09:23.865Z,100789.97
2022-10-18T03:11:51.385Z,100784.78
2022-10-18T03:14:18.881Z,100787.28
2022-10-18T03:16:46.466Z,100790.69
2022-10-18T03:19:14.035Z,100795.81
2022-10-18T03:21:42.884Z,100800.88
2022-10-18T03:24:10.391Z,100794.72
2022-10-18T03:26:37.909Z,100800.69
2022-10-18T03:29:05.554Z,100802.38
2022-10-18T03:31:33.664Z,100809.22
2022-10-18T03:34:01.208Z,100810.91
2022-10-18T03:36:28.797Z,100803.13
2022-10-18T03:38:57.724Z,100805.66
2022-10-18T03:41:25.359Z,100808.72
2022-10-18T03:43:52.848Z,100806.84
2022-10-18T03:46:20.365Z,100815.22
2022-10-18T03:48:47.876Z,100818.66
2022-10-18T03:51:15.402Z,100821.25
2022-10-18T03:53:42.947Z,100830.69
2022-10-18T03:56:11.840Z,100828.13
2022-10-18T03:58:39.363Z,100827.19
2022-10-18T04:01:07.047Z,100828.94
2022-10-18T04:03:34.547Z,100828.09
2022-10-18T04:06:03.517Z,100833.16
2022-10-18T04:08:31.170Z,100834.03
2022-10-18T04:10:58.703Z,100834.97
2022-10-18T04:13:27.588Z,100831.50
2022-10-18T04:15:55.093Z,100842.00
2022-10-18T04:18:22.601Z,100843.75
2022-10-18T04:20:50.087Z,100850.75
2022-10-18T04:23:17.629Z,100847.59
2022-10-18T04:25:45.180Z,100850.41
2022-10-18T04:28:12.703Z,100854.81
2022-10-18T04:30:41.548Z,100857.56
2022-10-18T04:33:09.136Z,100855.84
2022-10-18T04:35:37.245Z,100847.31
2022-10-18T04:38:04.764Z,100854.25
2022-10-18T04:40:32.265Z,100854.25
2022-10-18T04:42:59.769Z,100849.94
2022-10-18T04:45:27.285Z,100843.88
2022-10-18T04:47:56.127Z,100840.44
2022-10-18T04:50:23.683Z,100844.69
2022-10-18T04:52:53.387Z,100842.88
2022-10-18T04:55:21.603Z,100847.19
2022-10-18T04:57:49.124Z,100844.63
2022-10-18T05:00:16.831Z,100855.94
2022-10-18T05:02:44.372Z,100850.75
2022-10-18T05:05:14.191Z,100845.59
2022-10-18T05:07:42.255Z,100841.25
2022-10-18T05:10:10.471Z,100843.81
2022-10-18T05:12:38.006Z,100836.88
2022-10-18T05:15:06.399Z,100839.41
2022-10-18T05:17:33.941Z,100841.91
2022-10-18T05:20:01.495Z,100836.69
2022-10-18T05:22:30.635Z,100839.44
2022-10-18T05:24:58.384Z,100842.00
2022-10-18T05:27:25.960Z,100843.75
2022-10-18T05:29:53.461Z,100845.50
2022-10-18T05:32:21.056Z,100842.06
2022-10-18T05:34:48.582Z,100842.94
2022-10-18T05:37:16.089Z,100843.81
2022-10-18T05:39:44.925Z,100842.13
2022-10-18T05:42:12.456Z,100840.38
2022-10-18T05:44:40.015Z,100845.50
2022-10-18T05:47:07.486Z,100840.31
2022-10-18T05:49:35.955Z,100837.94
2022-10-18T05:52:03.580Z,100839.22
2022-10-18T05:54:31.096Z,100846.28
2022-10-18T05:56:59.949Z,100840.44
2022-10-18T05:59:27.479Z,100843.31
2022-10-18T06:01:54.982Z,100839.97
2022-10-18T06:04:22.565Z,100841.84
2022-10-18T06:06:50.068Z,100842.75
2022-10-18T06:09:17.628Z,100840.22
2022-10-18T06:11:45.140Z,100835.03
2022-10-18T06:14:14.153Z,100838.38
2022-10-18T06:16:41.678Z,100846.97
2022-10-18T06:19:09.184Z,100852.09
2022-10-18T06:21:36.724Z,100855.47
2022-10-18T06:24:04.614Z,100857.28
2022-10-18T06:26:32.107Z,100859.03
2022-10-18T06:28:59.658Z,100859.03
2022-10-18T06:31:28.623Z,100865.06
2022-10-18T06:33:57.229Z,100861.69
2022-10-18T06:36:25.480Z,100865.91
2022-10-18T06:38:53.724Z,100865.91
2022-10-18T06:41:22.053Z,100873.72
2022-10-18T06:43:50.111Z,100876.53
2022-10-18T06:46:18.093Z,100874.97
2022-10-18T06:48:47.395Z,100882.88
2022-10-18T06:51:15.134Z,100880.34
2022-10-18T06:53:59.301Z,100885.56
2022-10-18T06:56:31.397Z,100895.31
2022-10-18T07:01:31.695Z,100907.56
2022-10-18T07:04:00.615Z,100913.69
2022-10-18T07:06:28.167Z,100915.50
2022-10-18T07:08:56.104Z,100919.03
2022-10-18T07:11:26.112Z,100920.09
2022-10-18T07:14:00.244Z,100908.78
2022-10-18T07:16:27.825Z,100919.19
2022-10-18T07:18:55.359Z,100914.84
2022-10-18T07:21:25.843Z,100912.13
2022-10-18T07:23:54.230Z,100913.88
2022-10-18T07:26:23.994Z,100916.59
2022-10-18T07:28:55.191Z,100917.53
2022-10-18T07:31:24.085Z,100935.69
2022-10-18T07:33:51.880Z,100933.09
2022-10-18T07:36:21.164Z,100945.41
2022-10-18T07:38:51.798Z,100940.22
2022-10-18T07:41:20.482Z,100942.91
2022-10-18T07:43:50.718Z,100948.09
2022-10-18T07:46:19.760Z,100952.31
2022-10-18T07:48:47.810Z,100957.56
2022-10-18T07:51:15.693Z,100955.97
2022-10-18T07:53:43.427Z,100962.00
2022-10-18T07:56:16.396Z,100954.31
2022-10-18T07:58:44.566Z,100966.53
2022-10-18T08:01:12.738Z,100957.03
2022-10-18T08:03:40.765Z,100965.78
2022-10-18T08:06:10.253Z,100972.00
2022-10-18T08:08:39.668Z,100979.09
2022-10-18T08:11:09.870Z,100980.06
2022-10-18T08:13:38.790Z,100974.97
2022-10-18T08:16:08.335Z,100980.34
2022-10-18T08:18:36.396Z,100974.69
2022-10-18T08:21:06.221Z,100974.81
2022-10-18T08:23:35.306Z,100965.44
2022-10-18T08:26:03.861Z,100961.25
2022-10-18T08:28:31.681Z,100965.75
2022-10-18T08:31:04.863Z,100974.56
2022-10-18T08:33:32.703Z,100968.56
2022-10-18T08:36:02.104Z,100975.72
2022-10-18T08:38:31.772Z,100975.94
2022-10-18T08:41:01.060Z,100971.78
2022-10-18T08:43:37.042Z,100960.66
2022-10-18T08:46:06.316Z,100959.97
2022-10-18T08:48:39.892Z,100956.66
2022-10-18T08:51:18.251Z,100957.66
2022-10-18T08:53:57.653Z,100963.00
2022-10-18T08:56:28.332Z,100967.47
2022-10-18T08:58:56.106Z,100964.84
2022-10-18T09:01:39.162Z,100973.66
2022-10-18T09:04:35.404Z,100973.59
2022-10-18T09:07:22.264Z,100978.91
2022-10-18T09:09:56.385Z,100992.84
2022-10-18T09:12:48.941Z,100979.84
2022-10-18T09:15:22.963Z,100970.31
2022-10-18T09:18:04.961Z,100977.31
2022-10-18T09:20:40.494Z,100983.41
2022-10-18T09:23:19.486Z,100975.56
2022-10-18T09:25:49.317Z,100979.06
2022-10-18T09:28:25.092Z,100978.19
2022-10-18T09:30:59.855Z,100987.75
2022-10-18T09:33:49.231Z,100975.56
2022-10-18T09:36:21.742Z,100988.66
2022-10-18T09:38:56.048Z,100988.63
2022-10-18T09:41:29.343Z,100984.22
2022-10-18T09:44:01.513Z,100984.25
2022-10-18T09:46:33.983Z,100993.84
2022-10-18T09:49:06.881Z,101001.69
2022-10-18T09:51:37.842Z,100986.91
2022-10-18T09:54:21.211Z,100988.59
2022-10-18T09:56:52.232Z,100991.25
2022-10-18T09:59:34.837Z,100987.78
2022-10-18T10:02:02.470Z,100982.59
2022-10-18T10:04:31.649Z,100986.03
2022-10-18T10:07:02.034Z,100992.16
2022-10-18T10:09:31.337Z,101003.50
2022-10-18T10:11:59.595Z,101006.13
2022-10-18T10:14:30.204Z,101001.69
2022-10-18T10:17:02.111Z,100989.50
2022-10-18T10:19:33.900Z,100994.75
2022-10-18T10:22:06.390Z,100993.03
2022-10-18T10:24:47.497Z,100991.28
2022-10-18T10:27:21.224Z,100995.59
2022-10-18T10:30:00.462Z,100993.91
2022-10-18T10:32:39.283Z,100997.38
2022-10-18T10:35:33.925Z,100992.13
2022-10-18T10:38:03.528Z,100992.13
2022-10-18T10:40:32.796Z,100980.84
2022-10-18T10:43:18.340Z,100992.13
2022-10-18T10:46:02.051Z,100998.13
2022-10-18T10:48:33.658Z,100991.16
2022-10-18T10:51:09.716Z,101002.53
2022-10-18T10:53:46.726Z,100995.41
2022-10-18T10:56:22.589Z,100998.88
2022-10-18T10:58:51.907Z,100993.56
2022-10-18T11:01:26.932Z,100994.28
2022-10-18T11:03:57.266Z,100998.31
2022-10-18T11:06:51.096Z,101003.41
2022-10-18T11:09:45.263Z,101003.16
2022-10-18T11:12:28.043Z,101008.41
2022-10-18T11:15:11.702Z,101000.84
2022-10-18T11:17:42.875Z,100997.47
2022-10-18T11:20:22.270Z,100993.72
2022-10-18T11:23:00.822Z,100986.22
2022-10-18T11:25:41.537Z,100989.81
2022-10-18T11:28:18.544Z,100995.44
2022-10-18T11:30:59.883Z,100989.50
2022-10-18T11:34:07.216Z,100993.06
2022-10-18T11:36:33.984Z,101000.28
2022-10-18T11:39:16.865Z,100989.97
2022-10-18T11:41:52.712Z,100978.59
2022-10-18T11:44:28.435Z,100983.72
2022-10-18T11:47:05.481Z,100976.75
2022-10-18T11:49:45.108Z,100970.56
2022-10-18T11:52:20.138Z,100977.63
2022-10-18T11:55:05.880Z,100968.13
2022-10-18T11:57:43.819Z,100964.78
2022-10-18T12:00:33.584Z,100959.53
2022-10-18T12:03:31.319Z,100963.09
2022-10-18T12:06:04.825Z,100959.59
2022-10-18T12:08:36.945Z,100955.06
2022-10-18T12:11:13.664Z,100959.41
2022-10-18T12:13:46.805Z,100952.28
2022-10-18T12:16:15.327Z,100945.84
2022-10-18T12:18:50.739Z,100954.72
2022-10-18T12:21:25.426Z,100950.00
2022-10-18T12:23:57.615Z,100946.28
2022-10-18T12:26:29.022Z,100951.88
2022-10-18T12:29:09.222Z,100953.09
2022-10-18T12:31:41.504Z,100952.22
2022-10-18T12:34:26.944Z,100955.25
2022-10-18T12:37:21.229Z,100948.94
2022-10-18T12:42:45.520Z,100934.13
2022-10-18T12:45:25.699Z,100949.50
2022-10-18T12:47:54.386Z,100942.06
2022-10-18T12:50:30.292Z,100937.91
2022-10-18T12:53:18.850Z,100936.69
2022-10-18T12:55:49.011Z,100921.97
2022-10-18T12:58:27.454Z,100931.13
2022-10-18T13:01:03.162Z,100926.81
2022-10-18T13:03:53.989Z,100941.41
2022-10-18T13:06:22.708Z,100927.19
2022-10-18T13:09:17.680Z,100931.69
2022-10-18T13:11:46.043Z,100923.53
2022-10-18T13:14:48.213Z,100932.28
2022-10-18T13:17:33.882Z,100932.91
2022-10-18T13:20:28.098Z,100928.66
2022-10-18T13:23:18.069Z,100923.44
2022-10-18T13:26:02.198Z,100920.75
2022-10-18T13:28:40.021Z,100926.19
2022-10-18T13:31:24.201Z,100924.50
2022-10-18T13:33:52.052Z,100922.09
2022-10-18T13:36:24.581Z,100918.72
2022-10-18T13:39:05.101Z,100925.03
2022-10-18T13:42:14.679Z,100932.06
2022-10-18T13:44:44.618Z,100928.72
2022-10-18T13:47:15.043Z,100926.19
2022-10-18T13:50:16.787Z,100930.59
2022-10-18T13:53:13.515Z,100932.41
2022-10-18T13:55:56.185Z,100926.41
2022-10-18T13:58:41.081Z,100934.34
2022-10-18T14:01:25.676Z,100933.47
2022-10-18T14:04:38.784Z,100935.25
2022-10-18T14:07:08.463Z,100935.38
2022-10-18T14:09:45.076Z,100934.47
2022-10-18T14:12:23.717Z,100940.63
2022-10-18T14:14:58.761Z,100941.53
2022-10-18T14:17:34.904Z,100945.03
2022-10-18T14:20:15.579Z,100947.66
2022-10-18T14:22:48.703Z,100945.03
2022-10-18T14:25:22.599Z,100939.88
2022-10-18T14:27:53.671Z,100936.34
2022-10-18T14:30:23.936Z,100939.00
2022-10-18T14:32:54.385Z,100944.28
2022-10-18T14:35:32.968Z,100939.94
2022-10-18T14:38:01.909Z,100932.94
2022-10-18T14:40:37.932Z,100932.94
2022-10-18T14:43:11.300Z,100940.00
2022-10-18T14:45:40.359Z,100935.63
2022-10-18T14:48:14.780Z,100946.22
2022-10-18T14:50:44.173Z,100950.66
2022-10-18T14:53:17.550Z,100941.94
2022-10-18T14:55:53.141Z,100940.22
2022-10-18T14:58:21.971Z,100948.97
2022-10-18T15:00:51.128Z,100941.16
2022-10-18T15:03:19.339Z,100945.59
2022-10-18T15:05:55.429Z,100943.00
2022-10-18T15:08:25.000Z,100945.66
2022-10-18T15:10:53.196Z,100939.59
2022-10-18T15:13:20.861Z,100939.59
2022-10-18T15:15:48.627Z,100937.00
2022-10-18T15:18:22.673Z,100936.16
2022-10-18T15:21:20.247Z,100932.66
2022-10-18T15:23:47.824Z,100939.63
2022-10-18T15:26:21.437Z,100928.31
2022-10-18T15:28:53.019Z,100937.06
2022-10-18T15:31:26.669Z,100935.38
2022-10-18T15:34:08.842Z,100935.34
2022-10-18T15:36:37.181Z,100935.41
2022-10-18T15:39:07.429Z,100930.16
2022-10-18T15:41:44.674Z,100939.72
2022-10-18T15:44:26.023Z,100934.53
2022-10-18T15:46:56.261Z,100938.91
2022-10-18T15:49:51.199Z,100943.28
2022-10-18T15:52:36.634Z,100950.25
2022-10-18T15:55:39.112Z,100948.53
2022-10-18T15:58:12.422Z,100948.56
2022-10-18T16:00:39.867Z,100949.44
2022-10-18T16:03:08.740Z,100949.44
2022-10-18T16:05:38.859Z,100951.19
2022-10-18T16:08:06.689Z,100945.06
2022-10-18T16:10:34.316Z,100943.31
2022-10-18T16:13:01.857Z,100945.94
2022-10-18T16:15:29.406Z,100945.94
2022-10-18T16:17:56.914Z,100951.16
2022-10-18T16:20:26.759Z,100952.91
2022-10-18T16:22:55.646Z,100952.91
2022-10-18T16:25:23.154Z,100952.88
2022-10-18T16:27:50.731Z,100957.25
2022-10-18T16:30:20.917Z,100952.88
2022-10-18T16:32:48.834Z,100954.59
2022-10-18T16:35:16.594Z,100957.22
2022-10-18T16:37:44.092Z,100957.22
2022-10-18T16:40:23.306Z,100963.28
2022-10-18T16:42:50.855Z,100964.19
2022-10-18T16:45:19.448Z,100966.78
2022-10-18T16:47:47.261Z,100963.28
2022-10-18T16:50:17.977Z,100966.75
2022-10-18T16:52:48.445Z,100968.47
2022-10-18T16:55:21.238Z,100971.03
2022-10-18T16:57:51.786Z,100980.59
2022-10-18T17:00:21.641Z,100971.84
2022-10-18T17:02:50.061Z,100971.88
2022-10-18T17:05:19.038Z,100980.53
2022-10-18T17:07:47.322Z,100979.66
2022-10-18T17:10:16.641Z,100982.25
2022-10-18T17:12:44.181Z,100983.09
2022-10-18T17:15:13.665Z,100989.16
2022-10-18T17:17:41.432Z,100990.03
2022-10-18T17:20:10.085Z,100990.88
2022-10-18T17:22:37.757Z,100993.47
2022-10-18T17:25:05.768Z,100998.69
2022-10-18T17:27:33.543Z,101002.13
2022-10-18T17:30:01.448Z,101002.97
2022-10-18T17:32:30.347Z,101006.44
2022-10-18T17:34:58.626Z,101002.94
2022-10-18T17:37:26.273Z,101007.28
2022-10-18T17:39:53.784Z,101010.75
2022-10-18T17:42:21.947Z,101004.63
2022-10-18T17:44:51.905Z,101013.34
2022-10-18T17:47:20.520Z,101013.31
2022-10-18T17:49:49.377Z,101008.06
2022-10-18T17:52:16.983Z,101016.75
2022-10-18T17:54:44.516Z,101013.22
2022-10-18T17:57:12.027Z,101012.31
2022-10-18T17:59:39.595Z,101021.88
2022-10-18T18:02:07.216Z,101025.31
2022-10-18T18:04:34.801Z,101025.31
2022-10-18T18:07:04.387Z,101021.84
2022-10-18T18:09:32.187Z,101029.66
2022-10-18T18:12:00.161Z,101027.00
2022-10-18T18:14:27.811Z,101026.09
2022-10-18T18:16:55.370Z,101021.72
2022-10-18T18:19:23.837Z,101022.53
2022-10-18T18:21:53.526Z,101015.59
2022-10-18T18:24:24.644Z,101021.63
2022-10-18T18:26:53.576Z,101021.63
2022-10-18T18:29:21.264Z,101024.19
2022-10-18T18:31:49.424Z,101016.38
2022-10-18T18:34:17.635Z,101018.09
2022-10-18T18:36:45.507Z,101018.09
2022-10-18T18:39:20.718Z,101012.00
2022-10-18T18:41:51.159Z,101020.66
2022-10-18T18:44:20.099Z,101018.06
2022-10-18T18:46:48.185Z,101018.94
2022-10-18T18:49:15.875Z,101018.00
2022-10-18T18:51:43.565Z,101020.59
2022-10-18T18:54:13.845Z,101023.16
2022-10-18T18:56:42.605Z,101023.13
2022-10-18T18:59:13.783Z,101022.22
2022-10-18T19:01:42.111Z,101022.19
2022-10-18T19:04:11.015Z,101023.09
2022-10-18T19:06:41.193Z,101020.47
2022-10-18T19:09:13.182Z,101023.06
2022-10-18T19:11:40.783Z,101023.88
2022-10-18T19:14:09.142Z,101017.81
2022-10-18T19:16:39.246Z,101020.34
2022-10-18T19:19:08.916Z,101016.00
2022-10-18T19:21:38.306Z,101011.66
2022-10-18T19:24:06.893Z,101011.63
2022-10-18T19:26:37.105Z,101013.34
2022-10-18T19:29:09.359Z,101013.31
2022-10-18T19:31:39.141Z,101012.41
2022-10-18T19:34:08.856Z,101004.59
2022-10-18T19:36:36.877Z,101013.31
2022-10-18T19:39:05.817Z,101002.84
2022-10-18T19:41:33.489Z,101002.81
2022-10-18T19:44:01.178Z,101002.00
2022-10-18T19:46:29.068Z,101002.84
2022-10-18T19:48:58.533Z,101003.72
2022-10-18T19:51:28.316Z,100998.47
2022-10-18T19:53:57.111Z,101007.16
2022-10-18T19:56:26.127Z,101000.13
2022-10-18T19:58:54.365Z,101002.75
2022-10-18T20:01:22.073Z,101009.72
2022-10-18T20:03:49.810Z,101001.88
2022-10-18T20:06:19.033Z,101010.50
2022-10-18T20:08:46.630Z,101006.09
2022-10-18T20:11:17.393Z,101008.66
2022-10-18T20:13:44.943Z,101010.41
2022-10-18T20:16:20.127Z,101011.25
2022-10-18T20:18:49.677Z,101007.72
2022-10-18T20:21:18.756Z,101001.56
2022-10-18T20:23:46.405Z,101001.50
2022-10-18T20:26:19.636Z,101003.22
2022-10-18T20:28:55.594Z,101000.47
2022-10-18T20:31:24.952Z,100996.09
2022-10-18T20:33:55.602Z,100996.88
2022-10-18T20:36:24.795Z,101002.88
2022-10-18T20:38:53.175Z,101004.53
2022-10-18T20:41:22.676Z,100998.34
2022-10-18T20:43:53.831Z,101009.53
2022-10-18T20:46:21.815Z,100998.16
2022-10-18T20:48:50.349Z,100992.03
2022-10-18T20:51:18.196Z,100994.56
2022-10-18T20:53:47.156Z,100996.22
2022-10-18T20:56:16.000Z,101000.53
2022-10-18T20:58:45.147Z,100999.53
2022-10-18T21:01:15.180Z,100995.09
2022-10-18T21:03:45.406Z,101004.47
2022-10-18T21:06:14.312Z,101000.88
2022-10-18T21:08:42.393Z,101000.81
2022-10-18T21:11:11.900Z,101001.66
2022-10-18T21:13:40.684Z,101006.81
2022-10-18T21:16:08.650Z,101006.75
2022-10-18T21:18:37.507Z,101003.19
2022-10-18T21:21:09.184Z,101006.56
2022-10-18T21:23:36.899Z,100997.81
2022-10-18T21:26:05.189Z,100996.88
2022-10-18T21:28:34.262Z,100999.38
2022-10-18T21:31:14.401Z,100995.84
2022-10-18T21:33:42.357Z,100983.66
2022-10-18T21:36:10.595Z,100980.97
2022-10-18T21:38:38.760Z,100976.59
2022-10-18T21:41:09.628Z,100969.63
2022-10-18T21:43:40.409Z,100971.28
2022-10-18T21:46:08.529Z,100972.94
2022-10-18T21:48:36.033Z,100980.63
2022-10-18T21:51:04.767Z,100971.94
2022-10-18T21:53:32.547Z,100974.44
2022-10-18T21:56:05.712Z,100987.34
2022-10-18T21:58:33.553Z,100979.53
2022-10-18T22:01:02.734Z,100990.81
2022-10-18T22:03:30.321Z,100984.75
2022-10-18T22:05:59.187Z,100983.03
2022-10-18T22:08:26.707Z,100976.97
2022-10-18T22:10:54.380Z,100970.00
2022-10-18T22:13:21.903Z,100976.09
2022-10-18T22:15:49.695Z,100968.28
2022-10-18T22:18:19.093Z,100964.84
2022-10-18T22:20:54.384Z,100969.16
2022-10-18T22:23:22.024Z,100962.22
2022-10-18T22:25:49.940Z,100960.44
2022-10-18T22:28:17.642Z,100952.59
2022-10-18T22:30:45.144Z,100951.56
2022-10-18T22:33:12.660Z,100952.41
2022-10-18T22:35:41.501Z,100950.53
2022-10-18T22:38:09.019Z,100951.31
2022-10-18T22:40:36.523Z,100944.38
2022-10-18T22:43:04.057Z,100941.69
2022-10-18T22:45:31.585Z,100947.75
2022-10-18T22:47:59.191Z,100950.25
2022-10-18T22:50:26.785Z,100944.25
2022-10-18T22:52:55.632Z,100939.84
2022-10-18T22:55:23.673Z,100937.25
2022-10-18T22:57:51.207Z,100935.41
2022-10-18T23:00:18.716Z,100934.44
2022-10-18T23:02:46.233Z,100932.72
2022-10-18T23:05:13.752Z,100934.38
2022-10-18T23:07:41.265Z,100936.94
2022-10-18T23:10:10.392Z,100936.06
2022-10-18T23:12:37.999Z,100939.41
2022-10-18T23:15:06.546Z,100928.03
2022-10-18T23:17:34.376Z,100930.56
2022-10-18T23:20:02.073Z,100932.31
2022-10-18T23:22:29.602Z,100938.34
2022-10-18T23:24:57.187Z,100934.78
2022-10-18T23:27:26.023Z,100938.97
2022-10-18T23:29:53.612Z,100944.88
2022-10-18T23:32:21.135Z,100937.88
2022-10-18T23:34:48.701Z,100943.06
2022-10-18T23:37:16.212Z,100941.28
2022-10-18T23:39:43.715Z,100955.91
2022-10-18T23:42:11.376Z,100952.47
2022-10-18T23:44:40.289Z,100944.66
2022-10-18T23:47:07.849Z,100949.94
2022-10-18T23:49:35.582Z,100950.81
2022-10-18T23:52:03.092Z,100951.72
2022-10-18T23:54:30.624Z,100955.25
2022-10-18T23:56:58.205Z,100952.66
2022-10-18T23:59:25.953Z,100952.72
